Grand Junction, Michigan
Current Conditions -  °F | °C
As of 11:55 PM on Thursday 30 Oct 2014 (Local Time) from KLWA Reporting Station
Broken Clouds Broken Clouds  
Wind Chill: 51°   Ceiling: 12000
Heat Index: 51°   Visibility: 10mi
Dew Point: 38°   Wind: 6mph
Humidity: 60%   Direction: 290°WNW
Pressure: 30"   Gusts: NA
Location:  42.4°N, 86.07°W
Report Text: KLWA 310355Z AUTO 29005KT 10SM SCT035 SCT043 BKN120 11/03 A3000 RMK AO2 T01050031
Loading
Personal Weather Stations






























Interactive Weather Map
Tropical Storm Tracking
New forecast layout! Learn more

10-Day Weather Forecast

Advertisements
Track Severe Weather on mobile